Kystovka, Russia
Current Conditions -  °F | °C
As of 1:30 PM on Saturday 20 Dec 2014 (Local Time) from UNOO Reporting Station
Smoke Smoke  
Wind Chill: -10°   Ceiling: Unl
Heat Index:   Visibility: 2.8mi
Dew Point: -4°   Wind: 4mph
Humidity: 85%   Direction: 160°SSE
Pressure: 30.24"   Gusts: NA
Location:  56.6°N, 76.9°E
Report Text: UNOO 200630Z 16002MPS 4500 FU SCT200 M18/M20 Q1024 25820550NOSIG RMK QFE760
Loading
Personal Weather Stations






























Interactive Weather Map New forecast layout! Learn more

10-Day Weather Forecast

Advertisements
Track Severe Weather on mobile